sensor_id;sensor_type;location;lat;lon;timestamp;temperature;humidity
20568;DHT22;10442;49.932;11.592;2023-04-01T00:01:50;11.70;74.20
20568;DHT22;10442;49.932;11.592;2023-04-01T00:04:18;11.70;74.20
20568;DHT22;10442;49.932;11.592;2023-04-01T00:06:45;11.70;74.20
20568;DHT22;10442;49.932;11.592;2023-04-01T00:09:14;11.70;74.10
20568;DHT22;10442;49.932;11.592;2023-04-01T00:11:41;11.60;73.90
20568;DHT22;10442;49.932;11.592;2023-04-01T00:14:09;11.60;73.90
20568;DHT22;10442;49.932;11.592;2023-04-01T00:16:37;11.60;74.00
20568;DHT22;10442;49.932;11.592;2023-04-01T00:19:04;11.60;74.00
20568;DHT22;10442;49.932;11.592;2023-04-01T00:21:32;11.50;73.90
20568;DHT22;10442;49.932;11.592;2023-04-01T00:23:59;11.50;73.90
20568;DHT22;10442;49.932;11.592;2023-04-01T00:26:27;11.50;73.90
20568;DHT22;10442;49.932;11.592;2023-04-01T00:28:54;11.50;73.90
20568;DHT22;10442;49.932;11.592;2023-04-01T00:31:22;11.50;73.90
20568;DHT22;10442;49.932;11.592;2023-04-01T00:33:49;11.40;74.00
20568;DHT22;10442;49.932;11.592;2023-04-01T00:36:21;11.40;73.90
20568;DHT22;10442;49.932;11.592;2023-04-01T00:38:49;11.40;74.00
20568;DHT22;10442;49.932;11.592;2023-04-01T00:41:19;11.40;73.90
20568;DHT22;10442;49.932;11.592;2023-04-01T00:43:48;11.40;74.00
20568;DHT22;10442;49.932;11.592;2023-04-01T00:46:16;11.40;73.90
20568;DHT22;10442;49.932;11.592;2023-04-01T00:48:47;11.40;73.90
20568;DHT22;10442;49.932;11.592;2023-04-01T00:51:27;11.40;73.80
20568;DHT22;10442;49.932;11.592;2023-04-01T00:53:58;11.40;73.80
20568;DHT22;10442;49.932;11.592;2023-04-01T00:56:32;11.40;73.80
20568;DHT22;10442;49.932;11.592;2023-04-01T00:59:21;11.40;73.80
20568;DHT22;10442;49.932;11.592;2023-04-01T01:01:50;11.40;73.70
20568;DHT22;10442;49.932;11.592;2023-04-01T01:04:29;11.40;73.70
20568;DHT22;10442;49.932;11.592;2023-04-01T01:07:12;11.40;73.70
20568;DHT22;10442;49.932;11.592;2023-04-01T01:12:45;11.40;73.60
20568;DHT22;10442;49.932;11.592;2023-04-01T01:15:25;11.50;73.50
20568;DHT22;10442;49.932;11.592;2023-04-01T01:35:27;11.30;73.70
20568;DHT22;10442;49.932;11.592;2023-04-01T01:38:02;11.30;73.70
20568;DHT22;10442;49.932;11.592;2023-04-01T01:40:32;11.30;73.70
20568;DHT22;10442;49.932;11.592;2023-04-01T01:43:05;11.30;73.90
20568;DHT22;10442;49.932;11.592;2023-04-01T01:45:34;11.30;73.90
20568;DHT22;10442;49.932;11.592;2023-04-01T01:48:05;11.30;73.90
20568;DHT22;10442;49.932;11.592;2023-04-01T01:50:34;11.30;73.90
20568;DHT22;10442;49.932;11.592;2023-04-01T01:53:04;11.40;74.10
20568;DHT22;10442;49.932;11.592;2023-04-01T01:55:35;11.40;74.00
20568;DHT22;10442;49.932;11.592;2023-04-01T01:58:08;11.40;74.00
20568;DHT22;10442;49.932;11.592;2023-04-01T02:00:40;11.40;73.90
20568;DHT22;10442;49.932;11.592;2023-04-01T02:03:10;11.40;73.90
20568;DHT22;10442;49.932;11.592;2023-04-01T02:05:39;11.40;73.80
20568;DHT22;10442;49.932;11.592;2023-04-01T02:08:16;11.50;73.90
20568;DHT22;10442;49.932;11.592;2023-04-01T02:10:51;11.50;73.80
20568;DHT22;10442;49.932;11.592;2023-04-01T02:13:37;11.50;73.50
20568;DHT22;10442;49.932;11.592;2023-04-01T02:16:12;11.50;73.40
20568;DHT22;10442;49.932;11.592;2023-04-01T02:18:42;11.60;73.30
20568;DHT22;10442;49.932;11.592;2023-04-01T02:21:11;11.60;73.10
20568;DHT22;10442;49.932;11.592;2023-04-01T02:23:40;11.50;73.00
20568;DHT22;10442;49.932;11.592;2023-04-01T02:26:10;11.50;72.90
20568;DHT22;10442;49.932;11.592;2023-04-01T02:28:38;11.50;73.00
20568;DHT22;10442;49.932;11.592;2023-04-01T02:31:09;11.50;73.10
20568;DHT22;10442;49.932;11.592;2023-04-01T02:33:40;11.50;73.30
20568;DHT22;10442;49.932;11.592;2023-04-01T02:36:13;11.50;73.20
20568;DHT22;10442;49.932;11.592;2023-04-01T02:38:43;11.50;73.10
20568;DHT22;10442;49.932;11.592;2023-04-01T02:41:12;11.50;73.20
20568;DHT22;10442;49.932;11.592;2023-04-01T02:43:39;11.60;73.30
20568;DHT22;10442;49.932;11.592;2023-04-01T02:46:07;11.60;72.90
20568;DHT22;10442;49.932;11.592;2023-04-01T02:48:35;11.60;73.30
20568;DHT22;10442;49.932;11.592;2023-04-01T02:51:02;11.60;73.20
20568;DHT22;10442;49.932;11.592;2023-04-01T02:53:30;11.60;73.10
20568;DHT22;10442;49.932;11.592;2023-04-01T02:55:57;11.70;73.00
20568;DHT22;10442;49.932;11.592;2023-04-01T02:58:24;11.70;72.70
20568;DHT22;10442;49.932;11.592;2023-04-01T03:00:52;11.70;72.60
20568;DHT22;10442;49.932;11.592;2023-04-01T03:03:20;11.70;72.40
20568;DHT22;10442;49.932;11.592;2023-04-01T03:05:47;11.70;72.30
20568;DHT22;10442;49.932;11.592;2023-04-01T03:08:15;11.70;72.00
20568;DHT22;10442;49.932;11.592;2023-04-01T03:10:42;11.70;72.20
20568;DHT22;10442;49.932;11.592;2023-04-01T03:13:10;11.80;72.00
20568;DHT22;10442;49.932;11.592;2023-04-01T03:15:38;11.70;71.90
20568;DHT22;10442;49.932;11.592;2023-04-01T03:18:05;11.70;71.90
20568;DHT22;10442;49.932;11.592;2023-04-01T03:20:32;11.80;72.00
20568;DHT22;10442;49.932;11.592;2023-04-01T03:23:00;11.70;71.80
20568;DHT22;10442;49.932;11.592;2023-04-01T03:25:27;11.80;71.80
20568;DHT22;10442;49.932;11.592;2023-04-01T03:27:55;11.70;71.60
20568;DHT22;10442;49.932;11.592;2023-04-01T03:30:23;11.80;71.70
20568;DHT22;10442;49.932;11.592;2023-04-01T03:32:50;11.70;71.50
20568;DHT22;10442;49.932;11.592;2023-04-01T03:35:18;11.70;71.30
20568;DHT22;10442;49.932;11.592;2023-04-01T03:37:45;11.80;71.30
20568;DHT22;10442;49.932;11.592;2023-04-01T03:40:13;11.80;71.10
20568;DHT22;10442;49.932;11.592;2023-04-01T03:42:40;11.70;71.00
20568;DHT22;10442;49.932;11.592;2023-04-01T03:45:08;11.80;71.00
20568;DHT22;10442;49.932;11.592;2023-04-01T03:47:36;11.80;71.10
20568;DHT22;10442;49.932;11.592;2023-04-01T03:50:03;11.80;70.90
20568;DHT22;10442;49.932;11.592;2023-04-01T03:52:31;11.80;70.70
20568;DHT22;10442;49.932;11.592;2023-04-01T03:54:59;11.80;70.60
20568;DHT22;10442;49.932;11.592;2023-04-01T03:57:26;11.80;70.60
20568;DHT22;10442;49.932;11.592;2023-04-01T03:59:57;11.80;70.50
20568;DHT22;10442;49.932;11.592;2023-04-01T04:02:24;11.80;70.70
20568;DHT22;10442;49.932;11.592;2023-04-01T04:04:53;11.70;70.60
20568;DHT22;10442;49.932;11.592;2023-04-01T04:07:21;11.80;70.50
20568;DHT22;10442;49.932;11.592;2023-04-01T04:09:59;11.80;70.50
20568;DHT22;10442;49.932;11.592;2023-04-01T04:12:27;11.80;70.60
20568;DHT22;10442;49.932;11.592;2023-04-01T04:14:54;11.80;70.20
20568;DHT22;10442;49.932;11.592;2023-04-01T04:17:21;11.80;70.30
20568;DHT22;10442;49.932;11.592;2023-04-01T04:19:49;11.80;70.40
20568;DHT22;10442;49.932;11.592;2023-04-01T04:22:16;11.80;70.10
20568;DHT22;10442;49.932;11.592;2023-04-01T04:24:44;11.70;70.00
20568;DHT22;10442;49.932;11.592;2023-04-01T04:27:12;11.80;70.40
20568;DHT22;10442;49.932;11.592;2023-04-01T04:29:52;11.70;70.20
20568;DHT22;10442;49.932;11.592;2023-04-01T04:32:20;11.80;70.20
20568;DHT22;10442;49.932;11.592;2023-04-01T04:34:47;11.80;70.00
20568;DHT22;10442;49.932;11.592;2023-04-01T04:37:14;11.80;69.90
20568;DHT22;10442;49.932;11.592;2023-04-01T04:39:42;11.80;70.00
20568;DHT22;10442;49.932;11.592;2023-04-01T04:42:09;11.80;70.00
20568;DHT22;10442;49.932;11.592;2023-04-01T04:44:36;11.80;70.10
20568;DHT22;10442;49.932;11.592;2023-04-01T04:47:04;11.80;70.10
20568;DHT22;10442;49.932;11.592;2023-04-01T04:49:31;11.80;70.30
20568;DHT22;10442;49.932;11.592;2023-04-01T04:52:04;11.80;69.80
20568;DHT22;10442;49.932;11.592;2023-04-01T04:54:31;11.80;69.90
20568;DHT22;10442;49.932;11.592;2023-04-01T04:57:01;11.80;69.80
20568;DHT22;10442;49.932;11.592;2023-04-01T04:59:32;11.80;70.00
20568;DHT22;10442;49.932;11.592;2023-04-01T05:02:05;11.80;69.80
20568;DHT22;10442;49.932;11.592;2023-04-01T05:04:36;11.80;69.80
20568;DHT22;10442;49.932;11.592;2023-04-01T05:07:05;11.80;69.90
20568;DHT22;10442;49.932;11.592;2023-04-01T05:09:33;11.80;69.70
20568;DHT22;10442;49.932;11.592;2023-04-01T05:12:01;11.80;69.80
20568;DHT22;10442;49.932;11.592;2023-04-01T05:14:41;11.80;69.90
20568;DHT22;10442;49.932;11.592;2023-04-01T05:17:11;11.80;70.10
20568;DHT22;10442;49.932;11.592;2023-04-01T05:19:39;11.80;70.00
20568;DHT22;10442;49.932;11.592;2023-04-01T05:22:07;11.80;70.20
20568;DHT22;10442;49.932;11.592;2023-04-01T05:24:35;11.80;69.90
20568;DHT22;10442;49.932;11.592;2023-04-01T05:27:02;11.80;70.10
20568;DHT22;10442;49.932;11.592;2023-04-01T05:29:30;11.80;70.50
20568;DHT22;10442;49.932;11.592;2023-04-01T05:32:04;11.80;70.90
20568;DHT22;10442;49.932;11.592;2023-04-01T05:34:31;11.80;71.30
20568;DHT22;10442;49.932;11.592;2023-04-01T05:36:59;11.80;71.60
20568;DHT22;10442;49.932;11.592;2023-04-01T05:39:27;11.70;71.80
20568;DHT22;10442;49.932;11.592;2023-04-01T05:41:54;11.70;72.00
20568;DHT22;10442;49.932;11.592;2023-04-01T05:44:22;11.70;72.00
20568;DHT22;10442;49.932;11.592;2023-04-01T05:47:09;11.70;72.20
20568;DHT22;10442;49.932;11.592;2023-04-01T05:49:37;11.70;72.30
20568;DHT22;10442;49.932;11.592;2023-04-01T05:52:05;11.70;72.30
20568;DHT22;10442;49.932;11.592;2023-04-01T05:54:35;11.70;72.30
20568;DHT22;10442;49.932;11.592;2023-04-01T05:57:02;11.80;72.30
20568;DHT22;10442;49.932;11.592;2023-04-01T05:59:30;11.70;72.20
20568;DHT22;10442;49.932;11.592;2023-04-01T06:02:02;11.80;72.30
20568;DHT22;10442;49.932;11.592;2023-04-01T06:04:36;11.80;72.20
20568;DHT22;10442;49.932;11.592;2023-04-01T06:07:12;11.90;72.00
20568;DHT22;10442;49.932;11.592;2023-04-01T06:09:41;11.90;71.90
20568;DHT22;10442;49.932;11.592;2023-04-01T06:26:53;12.00;71.10
20568;DHT22;10442;49.932;11.592;2023-04-01T06:35:31;12.00;71.10
20568;DHT22;10442;49.932;11.592;2023-04-01T06:41:14;12.00;71.40
20568;DHT22;10442;49.932;11.592;2023-04-01T06:47:18;12.00;71.20
20568;DHT22;10442;49.932;11.592;2023-04-01T06:56:21;12.10;71.10
20568;DHT22;10442;49.932;11.592;2023-04-01T06:59:08;12.20;70.90
20568;DHT22;10442;49.932;11.592;2023-04-01T07:01:42;12.30;70.90
20568;DHT22;10442;49.932;11.592;2023-04-01T07:04:16;12.30;70.70
20568;DHT22;10442;49.932;11.592;2023-04-01T07:07:12;12.40;70.70
20568;DHT22;10442;49.932;11.592;2023-04-01T07:09:53;12.40;70.10
20568;DHT22;10442;49.932;11.592;2023-04-01T07:12:53;12.50;70.00
20568;DHT22;10442;49.932;11.592;2023-04-01T07:15:42;12.50;69.90
20568;DHT22;10442;49.932;11.592;2023-04-01T07:18:15;12.50;69.80
20568;DHT22;10442;49.932;11.592;2023-04-01T07:20:45;12.50;69.20
20568;DHT22;10442;49.932;11.592;2023-04-01T07:23:21;12.50;69.40
20568;DHT22;10442;49.932;11.592;2023-04-01T07:26:23;12.60;69.40
20568;DHT22;10442;49.932;11.592;2023-04-01T07:28:59;12.60;69.80
20568;DHT22;10442;49.932;11.592;2023-04-01T07:31:57;12.60;69.60
20568;DHT22;10442;49.932;11.592;2023-04-01T07:34:38;12.60;69.70
20568;DHT22;10442;49.932;11.592;2023-04-01T07:37:31;12.60;69.60
20568;DHT22;10442;49.932;11.592;2023-04-01T07:40:32;12.70;69.60
20568;DHT22;10442;49.932;11.592;2023-04-01T07:51:37;12.70;69.10
20568;DHT22;10442;49.932;11.592;2023-04-01T07:54:22;12.70;69.00
20568;DHT22;10442;49.932;11.592;2023-04-01T07:57:34;12.70;69.30
20568;DHT22;10442;49.932;11.592;2023-04-01T08:00:29;12.70;69.10
20568;DHT22;10442;49.932;11.592;2023-04-01T08:03:33;12.80;69.50
20568;DHT22;10442;49.932;11.592;2023-04-01T08:06:34;12.70;69.60
20568;DHT22;10442;49.932;11.592;2023-04-01T08:09:17;12.70;69.30
20568;DHT22;10442;49.932;11.592;2023-04-01T08:19:04;12.70;69.30
20568;DHT22;10442;49.932;11.592;2023-04-01T08:21:42;12.70;69.30
20568;DHT22;10442;49.932;11.592;2023-04-01T08:27:41;12.70;69.80
20568;DHT22;10442;49.932;11.592;2023-04-01T08:30:24;12.70;69.10
20568;DHT22;10442;49.932;11.592;2023-04-01T08:33:13;12.70;69.20
20568;DHT22;10442;49.932;11.592;2023-04-01T08:35:53;12.80;68.90
20568;DHT22;10442;49.932;11.592;2023-04-01T08:38:40;12.80;69.00
20568;DHT22;10442;49.932;11.592;2023-04-01T08:41:27;12.80;69.10
20568;DHT22;10442;49.932;11.592;2023-04-01T08:47:42;12.90;69.10
20568;DHT22;10442;49.932;11.592;2023-04-01T08:50:29;13.00;69.00
20568;DHT22;10442;49.932;11.592;2023-04-01T08:53:35;13.10;68.60
20568;DHT22;10442;49.932;11.592;2023-04-01T08:56:18;13.10;68.30
20568;DHT22;10442;49.932;11.592;2023-04-01T09:02:16;13.20;67.80
20568;DHT22;10442;49.932;11.592;2023-04-01T09:05:25;13.30;67.30
20568;DHT22;10442;49.932;11.592;2023-04-01T09:08:26;13.30;67.10
20568;DHT22;10442;49.932;11.592;2023-04-01T09:14:23;13.30;66.60
20568;DHT22;10442;49.932;11.592;2023-04-01T09:18:10;13.30;66.40
20568;DHT22;10442;49.932;11.592;2023-04-01T09:21:03;13.40;66.60
20568;DHT22;10442;49.932;11.592;2023-04-01T09:29:26;13.40;66.70
20568;DHT22;10442;49.932;11.592;2023-04-01T09:35:23;13.40;67.50
20568;DHT22;10442;49.932;11.592;2023-04-01T09:40:31;13.40;66.60
20568;DHT22;10442;49.932;11.592;2023-04-01T09:51:53;13.60;66.10
20568;DHT22;10442;49.932;11.592;2023-04-01T09:54:58;13.70;66.10
20568;DHT22;10442;49.932;11.592;2023-04-01T10:07:02;13.90;65.50
20568;DHT22;10442;49.932;11.592;2023-04-01T10:18:09;14.00;66.20
20568;DHT22;10442;49.932;11.592;2023-04-01T10:36:34;14.10;66.20
20568;DHT22;10442;49.932;11.592;2023-04-01T10:57:23;14.00;66.40
20568;DHT22;10442;49.932;11.592;2023-04-01T11:04:05;14.00;66.40
20568;DHT22;10442;49.932;11.592;2023-04-01T11:16:26;13.80;66.50
20568;DHT22;10442;49.932;11.592;2023-04-01T11:24:56;14.00;66.90
20568;DHT22;10442;49.932;11.592;2023-04-01T11:27:53;14.10;67.60
20568;DHT22;10442;49.932;11.592;2023-04-01T11:36:07;14.20;67.30
20568;DHT22;10442;49.932;11.592;2023-04-01T11:38:57;14.20;67.10
20568;DHT22;10442;49.932;11.592;2023-04-01T11:41:56;14.20;67.20
20568;DHT22;10442;49.932;11.592;2023-04-01T11:45:06;14.30;67.40
20568;DHT22;10442;49.932;11.592;2023-04-01T11:50:52;14.40;67.30
20568;DHT22;10442;49.932;11.592;2023-04-01T11:53:41;14.50;67.40
20568;DHT22;10442;49.932;11.592;2023-04-01T11:56:37;14.60;66.60
20568;DHT22;10442;49.932;11.592;2023-04-01T11:59:13;14.60;66.50
20568;DHT22;10442;49.932;11.592;2023-04-01T12:04:42;14.60;66.20
20568;DHT22;10442;49.932;11.592;2023-04-01T12:10:18;14.70;66.60
20568;DHT22;10442;49.932;11.592;2023-04-01T12:13:04;14.80;67.10
20568;DHT22;10442;49.932;11.592;2023-04-01T12:16:13;14.90;67.70
20568;DHT22;10442;49.932;11.592;2023-04-01T12:18:50;14.90;66.40
20568;DHT22;10442;49.932;11.592;2023-04-01T12:24:29;14.90;66.70
20568;DHT22;10442;49.932;11.592;2023-04-01T12:36:26;14.90;66.20
20568;DHT22;10442;49.932;11.592;2023-04-01T12:39:20;15.00;66.60
20568;DHT22;10442;49.932;11.592;2023-04-01T12:45:02;15.00;66.90
20568;DHT22;10442;49.932;11.592;2023-04-01T13:13:26;14.80;67.70
20568;DHT22;10442;49.932;11.592;2023-04-01T13:16:14;14.70;68.00
20568;DHT22;10442;49.932;11.592;2023-04-01T13:19:02;14.60;68.40
20568;DHT22;10442;49.932;11.592;2023-04-01T13:27:21;14.70;68.90
20568;DHT22;10442;49.932;11.592;2023-04-01T13:41:30;14.60;68.20
20568;DHT22;10442;49.932;11.592;2023-04-01T13:55:44;14.70;69.10
20568;DHT22;10442;49.932;11.592;2023-04-01T14:07:01;14.80;68.80
20568;DHT22;10442;49.932;11.592;2023-04-01T14:18:24;14.60;69.80
20568;DHT22;10442;49.932;11.592;2023-04-01T14:23:55;14.50;70.30
20568;DHT22;10442;49.932;11.592;2023-04-01T14:26:46;14.50;70.80
20568;DHT22;10442;49.932;11.592;2023-04-01T14:38:02;14.50;71.30
20568;DHT22;10442;49.932;11.592;2023-04-01T14:46:20;14.40;71.50
20568;DHT22;10442;49.932;11.592;2023-04-01T14:49:02;14.40;71.40
20568;DHT22;10442;49.932;11.592;2023-04-01T14:51:37;14.30;71.70
20568;DHT22;10442;49.932;11.592;2023-04-01T14:54:15;14.30;71.90
20568;DHT22;10442;49.932;11.592;2023-04-01T14:57:16;14.30;72.10
20568;DHT22;10442;49.932;11.592;2023-04-01T14:59:54;14.30;72.10
20568;DHT22;10442;49.932;11.592;2023-04-01T15:02:43;14.20;71.80
20568;DHT22;10442;49.932;11.592;2023-04-01T15:13:45;13.90;72.50
20568;DHT22;10442;49.932;11.592;2023-04-01T15:16:32;13.90;73.00
20568;DHT22;10442;49.932;11.592;2023-04-01T15:19:18;13.90;72.80
20568;DHT22;10442;49.932;11.592;2023-04-01T15:22:27;13.80;72.90
20568;DHT22;10442;49.932;11.592;2023-04-01T15:25:26;13.80;73.30
20568;DHT22;10442;49.932;11.592;2023-04-01T15:28:01;13.80;72.90
20568;DHT22;10442;49.932;11.592;2023-04-01T15:42:11;13.70;73.70
20568;DHT22;10442;49.932;11.592;2023-04-01T15:44:46;13.70;74.00
20568;DHT22;10442;49.932;11.592;2023-04-01T16:03:40;13.50;74.00
20568;DHT22;10442;49.932;11.592;2023-04-01T16:06:53;13.50;74.00
20568;DHT22;10442;49.932;11.592;2023-04-01T16:10:05;13.50;74.10
20568;DHT22;10442;49.932;11.592;2023-04-01T16:21:00;13.50;74.20
20568;DHT22;10442;49.932;11.592;2023-04-01T16:26:29;13.40;74.30
20568;DHT22;10442;49.932;11.592;2023-04-01T16:29:27;13.40;74.50
20568;DHT22;10442;49.932;11.592;2023-04-01T16:32:29;13.30;75.00
20568;DHT22;10442;49.932;11.592;2023-04-01T16:35:20;13.30;75.10
20568;DHT22;10442;49.932;11.592;2023-04-01T16:43:39;13.40;75.60
20568;DHT22;10442;49.932;11.592;2023-04-01T16:49:13;13.40;75.10
20568;DHT22;10442;49.932;11.592;2023-04-01T16:51:57;13.50;75.00
20568;DHT22;10442;49.932;11.592;2023-04-01T16:54:44;13.50;74.90
20568;DHT22;10442;49.932;11.592;2023-04-01T16:57:19;13.50;74.80
20568;DHT22;10442;49.932;11.592;2023-04-01T17:03:13;13.50;74.70
20568;DHT22;10442;49.932;11.592;2023-04-01T17:08:47;13.40;74.60
20568;DHT22;10442;49.932;11.592;2023-04-01T17:11:24;13.40;74.70
20568;DHT22;10442;49.932;11.592;2023-04-01T17:14:29;13.40;74.70
20568;DHT22;10442;49.932;11.592;2023-04-01T17:22:59;13.30;74.70
20568;DHT22;10442;49.932;11.592;2023-04-01T17:28:41;13.20;74.60
20568;DHT22;10442;49.932;11.592;2023-04-01T17:42:40;13.00;74.90
20568;DHT22;10442;49.932;11.592;2023-04-01T17:45:18;12.90;75.00
20568;DHT22;10442;49.932;11.592;2023-04-01T17:57:03;12.80;75.50
20568;DHT22;10442;49.932;11.592;2023-04-01T17:59:39;12.70;75.70
20568;DHT22;10442;49.932;11.592;2023-04-01T18:04:54;12.70;75.90
20568;DHT22;10442;49.932;11.592;2023-04-01T18:07:53;12.70;75.90
20568;DHT22;10442;49.932;11.592;2023-04-01T18:10:27;12.60;76.00
20568;DHT22;10442;49.932;11.592;2023-04-01T18:13:29;12.60;76.00
20568;DHT22;10442;49.932;11.592;2023-04-01T18:18:54;12.60;76.20
20568;DHT22;10442;49.932;11.592;2023-04-01T18:24:18;12.50;76.30
20568;DHT22;10442;49.932;11.592;2023-04-01T18:26:59;12.50;76.40
20568;DHT22;10442;49.932;11.592;2023-04-01T18:29:40;12.50;76.50
20568;DHT22;10442;49.932;11.592;2023-04-01T18:38:13;12.50;76.80
20568;DHT22;10442;49.932;11.592;2023-04-01T18:41:19;12.50;76.70
20568;DHT22;10442;49.932;11.592;2023-04-01T18:49:44;12.40;77.20
20568;DHT22;10442;49.932;11.592;2023-04-01T18:52:31;12.40;77.30
20568;DHT22;10442;49.932;11.592;2023-04-01T18:57:51;12.40;77.30
20568;DHT22;10442;49.932;11.592;2023-04-01T19:00:26;12.30;77.30
20568;DHT22;10442;49.932;11.592;2023-04-01T19:03:11;12.30;77.30
20568;DHT22;10442;49.932;11.592;2023-04-01T19:05:43;12.30;77.30
20568;DHT22;10442;49.932;11.592;2023-04-01T19:08:32;12.30;77.50
20568;DHT22;10442;49.932;11.592;2023-04-01T19:11:23;12.30;77.70
20568;DHT22;10442;49.932;11.592;2023-04-01T19:24:53;12.20;77.70
20568;DHT22;10442;49.932;11.592;2023-04-01T19:27:35;12.20;77.80
20568;DHT22;10442;49.932;11.592;2023-04-01T19:35:42;12.20;77.80
20568;DHT22;10442;49.932;11.592;2023-04-01T19:41:33;12.20;78.00
20568;DHT22;10442;49.932;11.592;2023-04-01T19:50:18;12.20;78.10
20568;DHT22;10442;49.932;11.592;2023-04-01T19:52:40;12.20;78.10
20568;DHT22;10442;49.932;11.592;2023-04-01T19:58:24;12.20;79.00
20568;DHT22;10442;49.932;11.592;2023-04-01T20:00:57;12.20;78.10
20568;DHT22;10442;49.932;11.592;2023-04-01T20:09:06;12.20;78.00
20568;DHT22;10442;49.932;11.592;2023-04-01T20:14:36;12.20;77.90
20568;DHT22;10442;49.932;11.592;2023-04-01T20:17:20;12.20;77.80
20568;DHT22;10442;49.932;11.592;2023-04-01T20:25:01;12.20;77.70
20568;DHT22;10442;49.932;11.592;2023-04-01T20:27:36;12.20;77.70
20568;DHT22;10442;49.932;11.592;2023-04-01T20:35:45;12.20;77.60
20568;DHT22;10442;49.932;11.592;2023-04-01T20:41:12;12.20;77.60
20568;DHT22;10442;49.932;11.592;2023-04-01T20:44:03;12.20;77.50
20568;DHT22;10442;49.932;11.592;2023-04-01T20:46:45;12.20;77.60
20568;DHT22;10442;49.932;11.592;2023-04-01T20:49:34;12.20;77.60
20568;DHT22;10442;49.932;11.592;2023-04-01T20:55:08;12.20;77.70
20568;DHT22;10442;49.932;11.592;2023-04-01T20:58:10;12.20;77.60
20568;DHT22;10442;49.932;11.592;2023-04-01T21:06:40;12.20;77.70
20568;DHT22;10442;49.932;11.592;2023-04-01T21:11:57;12.20;77.70
20568;DHT22;10442;49.932;11.592;2023-04-01T21:17:58;12.20;78.60
20568;DHT22;10442;49.932;11.592;2023-04-01T21:20:35;12.20;77.80
20568;DHT22;10442;49.932;11.592;2023-04-01T21:28:42;12.20;77.80
20568;DHT22;10442;49.932;11.592;2023-04-01T21:37:02;12.20;78.00
20568;DHT22;10442;49.932;11.592;2023-04-01T22:00:13;12.20;78.00
20568;DHT22;10442;49.932;11.592;2023-04-01T22:08:53;12.10;78.00
20568;DHT22;10442;49.932;11.592;2023-04-01T22:11:39;12.10;78.90
20568;DHT22;10442;49.932;11.592;2023-04-01T22:17:02;12.10;78.10
20568;DHT22;10442;49.932;11.592;2023-04-01T22:19:42;12.10;78.00
20568;DHT22;10442;49.932;11.592;2023-04-01T22:22:22;12.10;78.00
20568;DHT22;10442;49.932;11.592;2023-04-01T22:25:20;12.10;78.00
20568;DHT22;10442;49.932;11.592;2023-04-01T22:28:03;12.10;78.10
20568;DHT22;10442;49.932;11.592;2023-04-01T22:30:36;12.10;78.20
20568;DHT22;10442;49.932;11.592;2023-04-01T22:41:56;12.10;78.00
20568;DHT22;10442;49.932;11.592;2023-04-01T22:50:18;12.10;78.10
20568;DHT22;10442;49.932;11.592;2023-04-01T22:52:50;12.10;78.20
20568;DHT22;10442;49.932;11.592;2023-04-01T22:55:40;12.10;78.10
20568;DHT22;10442;49.932;11.592;2023-04-01T22:58:30;12.10;78.20
20568;DHT22;10442;49.932;11.592;2023-04-01T23:01:04;12.00;78.10
20568;DHT22;10442;49.932;11.592;2023-04-01T23:03:35;12.00;78.20
20568;DHT22;10442;49.932;11.592;2023-04-01T23:06:09;12.00;78.30
20568;DHT22;10442;49.932;11.592;2023-04-01T23:11:47;12.00;78.30
20568;DHT22;10442;49.932;11.592;2023-04-01T23:22:36;12.00;78.40
20568;DHT22;10442;49.932;11.592;2023-04-01T23:25:29;11.90;78.30
20568;DHT22;10442;49.932;11.592;2023-04-01T23:28:22;12.00;78.30
20568;DHT22;10442;49.932;11.592;2023-04-01T23:30:52;11.90;78.30
20568;DHT22;10442;49.932;11.592;2023-04-01T23:33:29;11.90;78.20
20568;DHT22;10442;49.932;11.592;2023-04-01T23:36:00;11.90;78.30
20568;DHT22;10442;49.932;11.592;2023-04-01T23:38:38;11.90;78.30
20568;DHT22;10442;49.932;11.592;2023-04-01T23:41:07;11.90;78.50
20568;DHT22;10442;49.932;11.592;2023-04-01T23:43:38;11.90;78.40
20568;DHT22;10442;49.932;11.592;2023-04-01T23:46:07;11.90;78.40
20568;DHT22;10442;49.932;11.592;2023-04-01T23:48:40;11.90;78.40
20568;DHT22;10442;49.932;11.592;2023-04-01T23:51:14;11.90;78.30
20568;DHT22;10442;49.932;11.592;2023-04-01T23:53:46;11.90;78.30
20568;DHT22;10442;49.932;11.592;2023-04-01T23:56:17;11.90;78.30
20568;DHT22;10442;49.932;11.592;2023-04-01T23:58:49;11.90;78.40
